Time;durP1;ratioP1;P1;durP2;ratioP2;P2;SDS_P1;SDS_P2;PMS_P1;PMS_P2;Temp;Humidity;BMP_temperature;BMP_pressure;BME280_temperature;BME280_humidity;BME280_pressure;Samples;Min_cycle;Max_cycle;Signal;HPM_P1;HPM_P2
2023/04/20 00:01:10;;;;;;;4.20;2.85;;;;;;;4.94;98.72;102565.91;4961219;28;20061;-72
2023/04/20 00:03:36;;;;;;;4.45;3.20;;;;;;;4.93;98.76;102553.66;4947125;28;20073;-72
2023/04/20 00:06:02;;;;;;;5.60;3.25;;;;;;;4.92;99.54;102553.66;4945170;28;20584;-72
2023/04/20 00:08:28;;;;;;;5.13;2.72;;;;;;;4.92;100.00;102557.16;4928829;28;20121;-72
2023/04/20 00:10:53;;;;;;;5.63;3.08;;;;;;;4.92;100.00;102541.41;4941491;28;20053;-72
2023/04/20 00:13:19;;;;;;;5.53;3.08;;;;;;;4.92;100.00;102549.28;4910496;28;20634;-72
2023/04/20 00:15:45;;;;;;;5.78;2.78;;;;;;;4.91;100.00;102537.03;4946765;28;20554;-72
2023/04/20 00:18:10;;;;;;;4.40;2.88;;;;;;;4.91;100.00;102537.03;4946294;28;20035;-72
2023/04/20 00:20:36;;;;;;;4.78;2.63;;;;;;;4.92;100.00;102538.78;4944452;28;20576;-72
2023/04/20 00:23:02;;;;;;;5.13;2.88;;;;;;;4.92;100.00;102528.28;4929852;28;20043;-72
2023/04/20 00:25:29;;;;;;;6.75;2.58;;;;;;;4.92;100.00;102524.78;4926143;28;20777;-72
2023/04/20 00:27:55;;;;;;;8.38;3.17;;;;;;;4.93;100.00;102522.16;4947839;28;20645;-72
2023/04/20 00:30:21;;;;;;;3.92;2.55;;;;;;;4.92;100.00;102516.91;4959598;28;20058;-72
2023/04/20 00:32:46;;;;;;;6.38;2.70;;;;;;;4.90;100.00;102516.88;4943410;28;20062;-72
2023/04/20 00:35:12;;;;;;;5.95;2.65;;;;;;;4.91;100.00;102509.91;4946600;28;20546;-72
2023/04/20 00:37:37;;;;;;;5.32;2.70;;;;;;;4.92;100.00;102509.03;4959691;28;20038;-72
2023/04/20 00:40:04;;;;;;;3.67;2.47;;;;;;;4.90;100.00;102506.38;4957862;28;20063;-72
2023/04/20 00:42:29;;;;;;;5.00;3.03;;;;;;;4.91;100.00;102496.78;4958463;28;20114;-72
2023/04/20 00:44:55;;;;;;;4.20;2.50;;;;;;;4.92;100.00;102499.41;4944385;28;20147;-72
2023/04/20 00:47:20;;;;;;;5.70;2.53;;;;;;;4.93;100.00;102495.91;4946926;28;20049;-72
2023/04/20 00:49:46;;;;;;;5.32;2.63;;;;;;;4.93;100.00;102489.78;4947772;28;20038;-72
2023/04/20 00:52:12;;;;;;;5.40;2.33;;;;;;;4.93;100.00;102485.41;4947597;28;20739;-72
2023/04/20 00:54:37;;;;;;;2.95;2.25;;;;;;;4.93;100.00;102485.41;4943148;28;20050;-72
2023/04/20 00:57:03;;;;;;;7.28;2.63;;;;;;;4.93;100.00;102490.66;4933262;28;20026;-72
2023/04/20 00:59:29;;;;;;;4.70;2.40;;;;;;;4.92;100.00;102478.41;4928913;28;20578;-72
2023/04/20 01:01:54;;;;;;;3.88;2.50;;;;;;;4.90;100.00;102477.50;4948442;28;20124;-72
2023/04/20 01:04:20;;;;;;;5.55;2.40;;;;;;;4.87;100.00;102475.78;4950256;28;20384;-72
2023/04/20 01:06:46;;;;;;;3.75;2.30;;;;;;;4.83;100.00;102475.72;4945261;28;20035;-72
2023/04/20 01:09:11;;;;;;;5.72;2.33;;;;;;;4.79;100.00;102463.47;4951248;28;20053;-72
2023/04/20 01:11:38;;;;;;;5.13;2.10;;;;;;;4.81;100.00;102475.75;4948696;28;20708;-72
2023/04/20 01:14:03;;;;;;;3.80;2.22;;;;;;;4.77;100.00;102463.47;4948196;28;20062;-72
2023/04/20 01:16:29;;;;;;;2.75;2.00;;;;;;;4.76;100.00;102465.19;4946470;28;20054;-72
2023/04/20 01:18:56;;;;;;;4.25;2.33;;;;;;;4.75;100.00;102449.47;4939037;28;20043;-72
2023/04/20 01:21:21;;;;;;;3.22;2.10;;;;;;;4.73;100.00;102441.59;4955207;28;20134;-72
2023/04/20 01:23:47;;;;;;;5.30;2.20;;;;;;;4.73;100.00;102440.69;4954558;28;20039;-73
2023/04/20 01:26:15;;;;;;;4.90;1.80;;;;;;;4.72;100.00;102431.06;4949457;28;20068;-72
2023/04/20 01:28:41;;;;;;;5.88;2.45;;;;;;;4.74;100.00;102437.22;4950776;28;20359;-72
2023/04/20 01:31:08;;;;;;;5.38;1.92;;;;;;;4.76;100.00;102430.22;4962799;28;20493;-72
2023/04/20 01:33:33;;;;;;;4.43;1.92;;;;;;;4.76;100.00;102425.84;4945943;28;21583;-72
2023/04/20 01:35:59;;;;;;;5.47;2.10;;;;;;;4.78;100.00;102427.63;4952085;28;20541;-73
2023/04/20 01:38:25;;;;;;;3.22;1.90;;;;;;;4.81;100.00;102425.00;4946981;28;20047;-73
2023/04/20 01:40:52;;;;;;;3.03;2.08;;;;;;;4.86;100.00;102421.50;4949440;28;20043;-73
2023/04/20 01:43:18;;;;;;;3.47;1.65;;;;;;;4.93;100.00;102422.41;4929156;28;20026;-73
2023/04/20 01:45:44;;;;;;;6.13;1.88;;;;;;;4.97;100.00;102413.66;4949693;28;20687;-73
2023/04/20 01:48:10;;;;;;;4.03;2.05;;;;;;;5.03;100.00;102418.94;4952063;28;20043;-73
2023/04/20 01:50:35;;;;;;;3.42;1.52;;;;;;;5.09;100.00;102406.72;4930355;28;20050;-72
2023/04/20 01:53:01;;;;;;;3.45;1.77;;;;;;;5.15;100.00;102410.25;4947840;28;20038;-72
2023/04/20 01:55:27;;;;;;;2.97;1.70;;;;;;;5.19;100.00;102412.84;4950310;28;20078;-72
2023/04/20 01:57:52;;;;;;;3.10;1.70;;;;;;;5.23;100.00;102404.13;4919623;28;20035;-72
2023/04/20 02:00:18;;;;;;;2.65;1.90;;;;;;;5.23;100.00;102404.97;4958271;28;20038;-72
2023/04/20 02:02:44;;;;;;;2.88;1.80;;;;;;;5.26;100.00;102397.13;4947645;28;20031;-72
2023/04/20 02:05:09;;;;;;;5.75;1.48;;;;;;;5.26;100.00;102385.72;4947645;28;20115;-72
2023/04/20 02:07:35;;;;;;;2.97;1.70;;;;;;;5.25;100.00;102382.25;4946300;28;20035;-72
2023/04/20 02:10:01;;;;;;;3.72;1.85;;;;;;;5.26;100.00;102378.75;4946078;28;20050;-72
2023/04/20 02:12:27;;;;;;;4.32;1.80;;;;;;;5.26;100.00;102383.09;4948210;28;20038;-72
2023/04/20 02:14:52;;;;;;;3.58;2.10;;;;;;;5.26;100.00;102372.59;4947633;28;20204;-72
2023/04/20 02:17:18;;;;;;;4.70;1.83;;;;;;;5.25;100.00;102370.84;4949460;28;20038;-72
2023/04/20 02:19:44;;;;;;;2.97;1.75;;;;;;;5.23;100.00;102360.34;4950055;28;20035;-72
2023/04/20 02:22:09;;;;;;;2.67;1.65;;;;;;;5.23;100.00;102349.84;4951561;28;20616;-72
2023/04/20 02:24:35;;;;;;;2.90;1.55;;;;;;;5.20;100.00;102362.97;4947987;28;20093;-72
2023/04/20 02:27:01;;;;;;;3.25;1.30;;;;;;;5.20;100.00;102360.34;4943477;28;20041;-72
2023/04/20 02:29:27;;;;;;;4.10;1.65;;;;;;;5.19;100.00;102350.72;4942180;28;20066;-72
2023/04/20 02:31:52;;;;;;;2.33;1.70;;;;;;;5.17;100.00;102347.19;4949315;28;20626;-72
2023/04/20 02:34:18;;;;;;;3.08;1.50;;;;;;;5.15;100.00;102341.97;4948784;28;20034;-72
2023/04/20 02:36:43;;;;;;;2.75;1.60;;;;;;;5.13;100.00;102343.69;4950540;28;20509;-72
2023/04/20 02:39:09;;;;;;;3.35;1.85;;;;;;;5.12;100.00;102343.72;4959112;28;20291;-71
2023/04/20 02:41:34;;;;;;;2.83;1.80;;;;;;;5.09;100.00;102349.84;4952988;28;20097;-73
2023/04/20 02:44:00;;;;;;;2.10;1.40;;;;;;;5.06;100.00;102339.31;4949087;28;20165;-72
2023/04/20 02:46:25;;;;;;;2.38;1.55;;;;;;;5.05;100.00;102344.59;4950271;28;20050;-71
2023/04/20 02:48:51;;;;;;;3.20;1.52;;;;;;;5.03;100.00;102345.44;4950475;28;20113;-72
2023/04/20 02:51:17;;;;;;;3.20;1.70;;;;;;;5.02;100.00;102343.69;4964118;28;20155;-72
2023/04/20 02:53:42;;;;;;;2.60;1.73;;;;;;;5.01;100.00;102331.44;4949494;28;20066;-72
2023/04/20 02:56:08;;;;;;;2.70;1.60;;;;;;;5.01;100.00;102335.81;4925124;28;20035;-72
2023/04/20 02:58:33;;;;;;;4.90;1.70;;;;;;;4.98;100.00;102338.44;4914728;28;20076;-72
2023/04/20 03:01:00;;;;;;;1.58;1.42;;;;;;;4.97;100.00;102339.31;4944051;28;20133;-72
2023/04/20 03:03:26;;;;;;;4.57;1.95;;;;;;;4.96;100.00;102327.06;4941516;28;20038;-72
2023/04/20 03:05:52;;;;;;;2.70;1.75;;;;;;;4.96;100.00;102320.03;4950248;28;20965;-71
2023/04/20 03:08:17;;;;;;;2.53;1.67;;;;;;;4.95;100.00;102310.41;4954348;28;20184;-72
2023/04/20 03:10:43;;;;;;;4.53;1.90;;;;;;;4.95;100.00;102315.66;4962223;28;20607;-73
2023/04/20 03:13:08;;;;;;;4.57;1.92;;;;;;;4.97;100.00;102313.91;4953281;28;20702;-73
2023/04/20 03:15:34;;;;;;;4.25;2.00;;;;;;;4.99;100.00;102306.94;4953844;28;20038;-72
2023/04/20 03:18:00;;;;;;;2.83;1.85;;;;;;;5.02;100.00;102306.94;4951838;28;20065;-73
2023/04/20 03:20:26;;;;;;;2.08;1.70;;;;;;;5.05;100.00;102305.19;4946170;28;20047;-72
2023/04/20 03:22:51;;;;;;;2.55;1.50;;;;;;;5.06;100.00;102296.44;4951381;28;20090;-72
2023/04/20 03:25:19;;;;;;;3.58;1.90;;;;;;;5.07;100.00;102295.56;4953956;28;20030;-72
2023/04/20 03:27:46;;;;;;;3.92;1.73;;;;;;;5.11;100.00;102294.69;4949370;28;20046;-72
2023/04/20 03:30:11;;;;;;;5.47;1.95;;;;;;;5.14;100.00;102284.19;4952874;28;20057;-72
2023/04/20 03:32:37;;;;;;;8.48;2.33;;;;;;;5.19;100.00;102290.34;4950332;28;20039;-72
2023/04/20 03:35:04;;;;;;;4.07;1.90;;;;;;;5.24;100.00;102288.56;4931525;28;20549;-72
2023/04/20 03:37:30;;;;;;;4.07;2.15;;;;;;;5.28;100.00;102282.44;4942050;28;20074;-72
2023/04/20 03:39:55;;;;;;;2.53;1.85;;;;;;;5.34;100.00;102283.31;4947064;28;20122;-71
2023/04/20 03:42:21;;;;;;;6.30;2.22;;;;;;;5.39;100.00;102284.22;4943729;28;20031;-72
2023/04/20 03:44:46;;;;;;;4.25;2.30;;;;;;;5.47;100.00;102285.06;4951704;28;20113;-73
2023/04/20 03:47:12;;;;;;;5.20;1.95;;;;;;;5.51;100.00;102281.53;4962111;28;20037;-73
2023/04/20 03:49:37;;;;;;;3.72;1.70;;;;;;;5.56;100.00;102276.31;4943006;28;20051;-72
2023/04/20 03:52:04;;;;;;;3.83;1.75;;;;;;;5.58;100.00;102264.88;4949077;28;20505;-72
2023/04/20 03:54:30;;;;;;;3.47;1.90;;;;;;;5.60;100.00;102270.16;4948008;28;20531;-72
2023/04/20 03:56:55;;;;;;;3.38;1.92;;;;;;;5.60;100.00;102264.91;4947135;28;20063;-71
2023/04/20 03:59:21;;;;;;;5.65;2.00;;;;;;;5.64;100.00;102268.41;4946061;28;20585;-72
2023/04/20 04:01:46;;;;;;;6.15;2.05;;;;;;;5.64;100.00;102266.66;4949190;28;20030;-72
2023/04/20 04:04:12;;;;;;;4.57;2.28;;;;;;;5.68;100.00;102264.91;4959877;28;20602;-72
2023/04/20 04:06:37;;;;;;;4.75;1.77;;;;;;;5.74;100.00;102259.63;4948863;28;20030;-71
2023/04/20 04:09:03;;;;;;;3.05;2.10;;;;;;;5.81;100.00;102257.84;4942870;28;20050;-71
2023/04/20 04:11:29;;;;;;;4.45;2.30;;;;;;;5.85;100.00;102252.56;4946150;28;20073;-71
2023/04/20 04:13:56;;;;;;;3.05;1.88;;;;;;;5.91;100.00;102248.19;4928345;28;20042;-73
2023/04/20 04:16:21;;;;;;;3.05;1.77;;;;;;;5.97;100.00;102248.16;4949009;28;20030;-72
2023/04/20 04:18:47;;;;;;;7.53;2.25;;;;;;;6.02;100.00;102256.03;4960161;28;20399;-72
2023/04/20 04:21:13;;;;;;;3.92;2.10;;;;;;;6.08;100.00;102253.41;4942062;28;20035;-72
2023/04/20 04:23:38;;;;;;;3.03;1.73;;;;;;;6.16;100.00;102245.50;4961462;28;20041;-72
2023/04/20 04:26:04;;;;;;;2.90;1.90;;;;;;;6.25;100.00;102246.31;4946549;28;20045;-72
2023/04/20 04:28:30;;;;;;;4.32;2.40;;;;;;;6.35;100.00;102239.25;4961662;28;20532;-72
2023/04/20 04:30:56;;;;;;;2.78;1.50;;;;;;;6.44;100.00;102248.88;4913279;28;20047;-72
2023/04/20 04:33:22;;;;;;;2.72;1.50;;;;;;;6.56;100.00;102245.28;4946131;28;20061;-73
2023/04/20 04:35:48;;;;;;;6.40;2.25;;;;;;;6.69;100.00;102239.94;4948156;28;20584;-72
2023/04/20 04:38:14;;;;;;;4.43;1.90;;;;;;;6.74;100.00;102240.75;4940946;28;20070;-71
2023/04/20 04:40:40;;;;;;;3.40;1.63;;;;;;;6.78;100.00;102231.97;4944415;28;20117;-72
2023/04/20 04:43:09;;;;;;;3.42;1.67;;;;;;;6.84;100.00;102239.81;4948774;28;20062;-72
2023/04/20 04:45:39;;;;;;;2.67;1.70;;;;;;;6.89;100.00;102247.69;4947495;28;20728;-71
2023/04/20 04:48:06;;;;;;;3.85;2.00;;;;;;;6.92;100.00;102226.63;4948809;28;20113;-72
2023/04/20 04:50:32;;;;;;;1.95;1.20;;;;;;;6.94;100.00;102219.56;4963027;28;20045;-72
2023/04/20 04:52:58;;;;;;;2.90;1.30;;;;;;;6.96;100.00;102219.56;4950090;28;20445;-73
2023/04/20 04:55:24;;;;;;;3.83;1.80;;;;;;;6.99;100.00;102222.16;4952613;28;20038;-72
2023/04/20 04:57:49;;;;;;;2.08;1.60;;;;;;;6.99;100.00;102216.91;4955079;28;20344;-73
2023/04/20 05:00:15;;;;;;;4.43;1.60;;;;;;;6.99;100.00;102216.91;4956868;28;20065;-72
2023/04/20 05:02:41;;;;;;;4.32;1.50;;;;;;;7.01;100.00;102233.53;4974080;28;20026;-72
2023/04/20 05:05:10;;;;;;;2.67;1.60;;;;;;;7.02;98.38;102224.75;4942507;28;20164;-73
2023/04/20 05:07:37;;;;;;;2.42;1.40;;;;;;;7.04;99.52;102231.75;4957186;28;20034;-73
2023/04/20 05:10:03;;;;;;;5.18;1.55;;;;;;;7.02;97.69;102248.44;4957670;28;20058;-73
2023/04/20 05:12:29;;;;;;;6.10;1.75;;;;;;;7.01;97.61;102228.28;4958664;28;20185;-73
2023/04/20 05:14:54;;;;;;;3.38;1.70;;;;;;;7.02;97.71;102232.66;4957459;28;20035;-74
2023/04/20 05:17:20;;;;;;;3.10;1.55;;;;;;;7.02;96.83;102237.91;4957029;28;20093;-72
2023/04/20 05:19:45;;;;;;;3.10;1.73;;;;;;;7.03;97.37;102235.28;4958086;28;22109;-72
2023/04/20 05:22:11;;;;;;;5.53;2.00;;;;;;;7.03;97.73;102240.56;4956580;28;20743;-72
2023/04/20 05:24:37;;;;;;;1.70;1.38;;;;;;;7.03;97.38;102230.00;4948086;28;20098;-72
2023/04/20 05:27:03;;;;;;;4.95;1.60;;;;;;;7.05;96.06;102225.63;4954967;28;21713;-72
2023/04/20 05:29:28;;;;;;;2.90;1.63;;;;;;;7.07;95.44;102229.13;4954172;28;20042;-72
2023/04/20 05:31:54;;;;;;;2.72;1.50;;;;;;;7.09;94.14;102226.47;4952723;28;20066;-73
2023/04/20 05:34:19;;;;;;;3.30;1.85;;;;;;;7.12;95.89;102229.06;4952758;28;20534;-72
2023/04/20 05:36:45;;;;;;;2.97;1.75;;;;;;;7.12;95.62;102226.44;4953887;28;20455;-72
2023/04/20 05:39:11;;;;;;;3.10;1.65;;;;;;;7.12;95.52;102223.81;4950852;28;20039;-72
2023/04/20 05:41:37;;;;;;;3.88;1.70;;;;;;;7.15;94.23;102225.53;4930439;28;20983;-73
2023/04/20 05:44:02;;;;;;;3.53;1.58;;;;;;;7.15;94.00;102215.00;4953180;28;20054;-73
2023/04/20 05:46:28;;;;;;;2.47;1.52;;;;;;;7.16;94.75;102211.47;4953181;28;20646;-73
2023/04/20 05:48:54;;;;;;;5.15;1.80;;;;;;;7.17;93.95;102211.47;4931828;28;20053;-73
2023/04/20 05:51:21;;;;;;;2.40;1.48;;;;;;;7.17;93.01;102229.03;4956203;28;20520;-73
2023/04/20 05:53:46;;;;;;;2.42;1.45;;;;;;;7.17;92.41;102237.81;4933261;28;20041;-73
2023/04/20 05:56:13;;;;;;;4.30;1.70;;;;;;;7.19;92.56;102246.56;4954100;28;20027;-72
2023/04/20 05:58:39;;;;;;;3.58;1.33;;;;;;;7.17;92.20;102244.81;4945234;28;20081;-72
2023/04/20 06:01:06;;;;;;;2.03;1.40;;;;;;;7.18;89.91;102236.03;4914740;28;20057;-72
2023/04/20 06:03:32;;;;;;;3.30;1.55;;;;;;;7.19;91.59;102236.03;4949136;28;20096;-73
2023/04/20 06:05:57;;;;;;;2.53;1.38;;;;;;;7.19;91.22;102224.59;4962781;28;20109;-72
2023/04/20 06:08:23;;;;;;;3.22;1.23;;;;;;;7.15;89.90;102223.75;4950712;28;20038;-72
2023/04/20 06:10:56;;;;;;;3.75;1.75;;;;;;;7.14;90.90;102222.03;4951814;28;20461;-72
2023/04/20 06:13:21;;;;;;;1.98;1.40;;;;;;;7.14;91.82;102224.66;4944689;28;20517;-74
2023/04/20 06:15:47;;;;;;;2.90;1.48;;;;;;;7.15;91.25;102226.41;4949613;28;20039;-72
2023/04/20 06:18:13;;;;;;;2.58;1.50;;;;;;;7.16;93.37;102225.53;4945530;28;20122;-73
2023/04/20 06:20:39;;;;;;;3.38;1.50;;;;;;;7.17;94.02;102227.28;4950933;28;20034;-73
2023/04/20 06:23:05;;;;;;;5.05;1.60;;;;;;;7.15;93.45;102229.03;4954421;28;20504;-73
2023/04/20 06:25:30;;;;;;;3.97;1.50;;;;;;;7.11;94.83;102229.97;4954090;28;20035;-73
2023/04/20 06:27:56;;;;;;;2.13;1.48;;;;;;;7.05;96.89;102227.38;4968247;28;20038;-72
2023/04/20 06:30:21;;;;;;;1.88;1.50;;;;;;;6.94;98.99;102240.63;4954027;28;20054;-73
2023/04/20 06:32:47;;;;;;;2.22;1.55;;;;;;;6.93;100.00;102242.38;4953470;28;20102;-73
2023/04/20 06:35:13;;;;;;;3.72;1.60;;;;;;;6.96;100.00;102232.72;4964206;28;21882;-72
2023/04/20 06:37:39;;;;;;;2.90;1.70;;;;;;;7.00;100.00;102219.53;4954879;28;20107;-72
2023/04/20 06:40:09;;;;;;;2.05;1.52;;;;;;;7.05;100.00;102238.81;4954322;28;20093;-71
2023/04/20 06:42:35;;;;;;;3.60;1.83;;;;;;;7.02;100.00;102223.00;4950771;28;21421;-72
2023/04/20 06:45:00;;;;;;;3.65;1.58;;;;;;;6.95;100.00;102220.44;4953123;28;20046;-73
2023/04/20 06:47:32;;;;;;;2.78;1.67;;;;;;;6.88;100.00;102235.41;4955329;28;20027;-72
2023/04/20 06:49:59;;;;;;;4.90;1.45;;;;;;;6.82;100.00;102236.34;4951143;28;20038;-72
2023/04/20 06:52:25;;;;;;;1.90;1.50;;;;;;;6.77;100.00;102227.59;4962201;28;20062;-72
2023/04/20 06:54:50;;;;;;;3.38;1.90;;;;;;;6.78;100.00;102227.59;4965954;28;20097;-71
2023/04/20 06:57:16;;;;;;;3.78;1.73;;;;;;;6.77;100.00;102231.09;4952767;28;20034;-72
2023/04/20 06:59:42;;;;;;;1.85;1.63;;;;;;;6.76;100.00;102233.75;4938001;28;21335;-73
2023/04/20 07:02:07;;;;;;;2.35;1.60;;;;;;;6.73;100.00;102231.13;4933998;28;20037;-72
2023/04/20 07:04:33;;;;;;;2.90;1.60;;;;;;;6.69;100.00;102237.31;4946551;28;20109;-72
2023/04/20 07:06:58;;;;;;;1.85;1.35;;;;;;;6.64;100.00;102227.69;4940572;28;20668;-72
2023/04/20 07:09:24;;;;;;;3.28;1.85;;;;;;;6.59;100.00;102224.19;4940885;28;20061;-72
2023/04/20 07:11:49;;;;;;;2.20;1.73;;;;;;;6.57;100.00;102230.34;4944673;28;20541;-72
2023/04/20 07:14:15;;;;;;;1.83;1.35;;;;;;;6.51;100.00;102223.38;4957226;28;20043;-72
2023/04/20 07:16:40;;;;;;;3.15;1.77;;;;;;;6.48;100.00;102237.44;4934347;28;20134;-72
2023/04/20 07:19:06;;;;;;;1.98;1.63;;;;;;;6.37;100.00;102234.84;4936283;28;20778;-72
2023/04/20 07:21:32;;;;;;;3.28;1.60;;;;;;;6.22;100.00;102240.22;4934623;28;20173;-72
2023/04/20 07:23:58;;;;;;;5.15;1.90;;;;;;;6.11;100.00;102235.00;4940134;28;20585;-72
2023/04/20 07:26:24;;;;;;;6.55;1.90;;;;;;;5.94;100.00;102221.91;4931114;28;20039;-72
2023/04/20 07:28:50;;;;;;;5.15;1.83;;;;;;;5.81;100.00;102235.06;4954483;28;20045;-72
2023/04/20 07:31:16;;;;;;;2.35;1.75;;;;;;;5.72;100.00;102227.19;4918749;28;20526;-71
2023/04/20 07:33:42;;;;;;;2.72;1.73;;;;;;;5.63;100.00;102216.72;4939874;28;20090;-72
2023/04/20 07:36:08;;;;;;;3.45;2.17;;;;;;;5.55;100.00;102228.13;4940045;28;21693;-71
2023/04/20 07:38:34;;;;;;;3.63;1.92;;;;;;;5.47;100.00;102235.16;4942520;28;20078;-72
2023/04/20 07:41:00;;;;;;;4.95;2.50;;;;;;;5.41;100.00;102232.53;4936058;28;20030;-72
2023/04/20 07:43:25;;;;;;;3.13;1.95;;;;;;;5.37;100.00;102228.16;4940115;28;20616;-72
2023/04/20 07:45:51;;;;;;;6.32;2.85;;;;;;;5.33;100.00;102221.16;4940644;28;20761;-72
2023/04/20 07:48:16;;;;;;;4.05;2.78;;;;;;;5.28;100.00;102219.41;4941616;28;20035;-72
2023/04/20 07:50:42;;;;;;;3.17;2.35;;;;;;;5.27;100.00;102222.91;4921604;28;20039;-71
2023/04/20 07:53:08;;;;;;;3.75;2.45;;;;;;;5.27;100.00;102220.28;4936026;28;20571;-72
2023/04/20 07:55:33;;;;;;;5.15;2.30;;;;;;;5.28;100.00;102213.28;4914700;28;20494;-71
2023/04/20 07:57:59;;;;;;;3.72;2.10;;;;;;;5.28;100.00;102219.41;4942237;28;20054;-71
2023/04/20 08:00:25;;;;;;;4.50;2.10;;;;;;;5.29;100.00;102221.16;4939492;28;20035;-71
2023/04/20 08:02:51;;;;;;;3.85;2.30;;;;;;;5.32;100.00;102214.19;4929718;28;20181;-71
2023/04/20 08:05:17;;;;;;;3.03;2.00;;;;;;;5.34;100.00;102220.28;4917668;28;20172;-72
2023/04/20 08:07:42;;;;;;;2.88;2.20;;;;;;;5.35;100.00;102229.91;4936560;28;20597;-74
2023/04/20 08:10:09;;;;;;;4.70;2.10;;;;;;;5.35;100.00;102219.41;4940019;28;20039;-71
2023/04/20 08:12:35;;;;;;;3.25;2.30;;;;;;;5.36;100.00;102215.91;4954107;28;20319;-71
2023/04/20 08:15:04;;;;;;;2.83;2.20;;;;;;;5.37;100.00;102212.38;4941048;28;20677;-70
2023/04/20 08:17:29;;;;;;;5.35;2.58;;;;;;;5.40;100.00;102222.91;4934470;28;20045;-71
2023/04/20 08:19:55;;;;;;;6.35;2.40;;;;;;;5.43;100.00;102217.63;4939975;28;21081;-70
2023/04/20 08:22:20;;;;;;;3.83;2.58;;;;;;;5.43;100.00;102215.91;4940957;28;20038;-72
2023/04/20 08:24:46;;;;;;;2.50;1.98;;;;;;;5.44;100.00;102215.00;4940539;28;20383;-71
2023/04/20 08:27:13;;;;;;;3.20;2.03;;;;;;;5.46;100.00;102207.16;4940977;28;20512;-71
2023/04/20 08:29:38;;;;;;;5.18;2.15;;;;;;;5.50;100.00;102214.13;4937323;28;20069;-72
2023/04/20 08:32:07;;;;;;;5.18;2.22;;;;;;;5.52;100.00;102212.38;4951803;28;20262;-71
2023/04/20 08:34:33;;;;;;;4.30;2.30;;;;;;;5.56;100.00;102211.47;4920220;28;20342;-72
2023/04/20 08:36:59;;;;;;;7.80;2.30;;;;;;;5.61;100.00;102206.22;4934327;28;20050;-72
2023/04/20 08:39:25;;;;;;;3.72;2.38;;;;;;;5.66;100.00;102203.59;4905915;28;20581;-71
2023/04/20 08:41:54;;;;;;;3.75;2.47;;;;;;;5.69;100.00;102214.09;4940689;28;20612;-71
2023/04/20 08:44:20;;;;;;;3.08;2.65;;;;;;;5.69;100.00;102208.81;4938714;28;20390;-71
2023/04/20 08:46:47;;;;;;;3.47;2.25;;;;;;;5.74;100.00;102201.81;4932451;28;20042;-72
2023/04/20 08:49:17;;;;;;;6.03;2.63;;;;;;;5.77;100.00;102193.91;4930963;28;20050;-71
2023/04/20 08:51:43;;;;;;;4.85;2.55;;;;;;;5.79;100.00;102200.03;4934915;28;20600;-71
2023/04/20 08:54:10;;;;;;;3.42;2.15;;;;;;;5.83;100.00;102212.28;4939221;28;20348;-70
2023/04/20 08:56:46;;;;;;;4.43;2.22;;;;;;;5.85;100.00;102204.41;4940726;28;20108;-71
2023/04/20 08:59:13;;;;;;;4.95;2.13;;;;;;;5.83;100.00;102201.75;4942321;28;20122;-70
2023/04/20 09:01:40;;;;;;;4.45;2.40;;;;;;;5.88;100.00;102200.88;4937994;28;20205;-71
2023/04/20 09:04:38;;;;;;;4.03;2.33;;;;;;;5.94;100.00;102198.22;4938970;28;20960;-71
2023/04/20 09:07:04;;;;;;;3.50;2.60;;;;;;;5.97;100.00;102199.09;4913692;28;20129;-71
2023/04/20 09:09:30;;;;;;;4.13;2.40;;;;;;;5.99;100.00;102209.56;4934225;28;20124;-71
2023/04/20 09:12:01;;;;;;;3.95;2.30;;;;;;;6.01;100.00;102204.31;4935987;28;20042;-71
2023/04/20 09:14:27;;;;;;;5.55;2.70;;;;;;;6.03;100.00;102192.94;4941601;28;20046;-71
2023/04/20 09:17:01;;;;;;;3.75;2.38;;;;;;;6.03;100.00;102194.69;4936927;28;20042;-71
2023/04/20 09:19:30;;;;;;;3.80;2.42;;;;;;;6.05;100.00;102195.59;4934025;28;20169;-71
2023/04/20 09:22:02;;;;;;;4.78;2.60;;;;;;;6.03;100.00;102192.94;4932540;28;20062;-71
2023/04/20 09:24:33;;;;;;;5.25;2.60;;;;;;;6.01;100.00;102191.19;4937172;28;20109;-70
2023/04/20 09:27:00;;;;;;;2.97;2.40;;;;;;;5.97;100.00;102193.84;4940766;28;20050;-71
2023/04/20 09:29:27;;;;;;;5.15;2.80;;;;;;;5.97;100.00;102185.94;4919136;28;20039;-70
2023/04/20 09:31:53;;;;;;;4.30;2.78;;;;;;;5.99;100.00;102193.81;4937831;28;20157;-70
2023/04/20 09:34:19;;;;;;;3.25;2.40;;;;;;;6.05;100.00;102196.44;4936837;28;20059;-70
2023/04/20 09:36:49;;;;;;;6.72;2.70;;;;;;;6.14;100.00;102189.41;4939978;28;20031;-70
2023/04/20 09:39:19;;;;;;;5.57;2.53;;;;;;;6.17;100.00;102189.38;4934047;28;20046;-71
2023/04/20 09:41:46;;;;;;;4.95;2.75;;;;;;;6.14;100.00;102194.66;4944087;28;20326;-70
2023/04/20 09:44:12;;;;;;;6.80;3.03;;;;;;;6.13;100.00;102178.00;4944772;28;20030;-72
2023/04/20 09:46:40;;;;;;;4.88;2.53;;;;;;;6.23;100.00;102194.59;4931180;28;20161;-72
2023/04/20 09:49:07;;;;;;;3.78;2.63;;;;;;;6.25;100.00;102188.47;4942798;28;20177;-71
2023/04/20 09:51:35;;;;;;;5.97;2.97;;;;;;;6.25;100.00;102192.84;4940770;28;20066;-71
2023/04/20 09:54:02;;;;;;;3.33;2.38;;;;;;;6.22;100.00;102193.72;4939164;28;20026;-70
2023/04/20 09:56:29;;;;;;;4.32;2.65;;;;;;;6.21;100.00;102186.72;4938162;28;20069;-71
2023/04/20 09:58:55;;;;;;;3.40;2.60;;;;;;;6.29;100.00;102181.44;4941169;28;20049;-70
2023/04/20 10:01:21;;;;;;;4.80;2.97;;;;;;;6.41;100.00;102183.09;4943552;28;20205;-71
2023/04/20 10:03:47;;;;;;;5.90;3.30;;;;;;;6.51;100.00;102183.91;4954839;28;20490;-71
2023/04/20 10:06:23;;;;;;;5.00;3.00;;;;;;;6.61;100.00;102189.97;4943155;28;20554;-71
2023/04/20 10:08:50;;;;;;;3.95;2.90;;;;;;;6.59;100.00;102197.88;4939405;28;20444;-71
2023/04/20 10:11:33;;;;;;;3.85;2.60;;;;;;;6.52;100.00;102197.06;4942115;28;20955;-72
2023/04/20 10:14:20;;;;;;;3.63;2.70;;;;;;;6.54;100.00;102183.88;4935067;28;20039;-71
2023/04/20 10:16:56;;;;;;;4.68;2.95;;;;;;;6.64;100.00;102182.06;4944633;28;20540;-71
2023/04/20 10:19:22;;;;;;;4.30;2.45;;;;;;;6.81;100.00;102173.16;4942408;28;21856;-71
2023/04/20 10:21:49;;;;;;;5.85;2.90;;;;;;;6.88;100.00;102178.38;4926221;28;20035;-72
2023/04/20 10:24:27;;;;;;;4.53;2.90;;;;;;;6.93;100.00;102173.91;4937323;28;20035;-73
2023/04/20 10:26:52;;;;;;;4.82;2.90;;;;;;;6.99;100.00;102164.22;4947426;28;20043;-73
2023/04/20 10:29:25;;;;;;;5.38;3.03;;;;;;;7.00;100.00;102158.97;4947204;28;20046;-72
2023/04/20 10:31:52;;;;;;;5.20;3.30;;;;;;;7.05;100.00;102165.06;4954815;28;20150;-73
2023/04/20 10:34:31;;;;;;;5.70;3.13;;;;;;;7.11;100.00;102160.59;4952436;28;20039;-73
2023/04/20 10:37:08;;;;;;;5.85;3.03;;;;;;;7.17;100.00;102158.78;4939317;28;20051;-73
2023/04/20 10:39:36;;;;;;;4.88;3.22;;;;;;;7.20;100.00;102153.47;4944166;28;20051;-73
2023/04/20 10:42:02;;;;;;;5.45;3.20;;;;;;;7.23;100.00;102162.25;4956927;28;20035;-73
2023/04/20 10:44:27;;;;;;;6.78;3.53;;;;;;;7.22;100.00;102171.91;4927329;28;20070;-73
2023/04/20 10:46:54;;;;;;;3.67;2.53;;;;;;;7.19;100.00;102167.53;4936485;28;20042;-73
2023/04/20 10:49:25;;;;;;;4.88;2.90;;;;;;;7.11;100.00;102168.50;4932611;28;20034;-73
2023/04/20 10:51:51;;;;;;;4.22;2.83;;;;;;;7.09;100.00;102175.56;4918330;28;20168;-73
2023/04/20 10:54:18;;;;;;;5.55;2.92;;;;;;;7.03;100.00;102174.72;4941520;28;20373;-73
2023/04/20 10:56:48;;;;;;;5.47;3.88;;;;;;;7.04;100.00;102160.66;4941684;28;20219;-73
2023/04/20 10:59:15;;;;;;;3.75;2.97;;;;;;;7.09;100.00;102165.03;4941238;28;20051;-72
2023/04/20 11:01:41;;;;;;;4.25;2.95;;;;;;;7.07;100.00;102165.91;4930203;28;20046;-72
2023/04/20 11:04:09;;;;;;;6.00;3.10;;;;;;;7.04;100.00;102154.53;4939467;28;20154;-73
2023/04/20 11:06:35;;;;;;;8.40;5.32;;;;;;;6.99;100.00;102165.13;4942968;28;20103;-72
2023/04/20 11:09:01;;;;;;;5.97;3.17;;;;;;;6.96;100.00;102164.28;4940701;28;20050;-71
2023/04/20 11:11:27;;;;;;;5.47;3.03;;;;;;;6.95;100.00;102157.22;4951330;28;20581;-73
2023/04/20 11:14:09;;;;;;;5.55;3.05;;;;;;;6.96;100.00;102154.59;4936886;28;20034;-73
2023/04/20 11:16:35;;;;;;;4.00;3.05;;;;;;;6.95;100.00;102158.13;4935767;28;20050;-73
2023/04/20 11:19:02;;;;;;;5.32;2.90;;;;;;;6.90;100.00;102166.06;4920301;28;20038;-73
2023/04/20 11:21:39;;;;;;;6.45;2.90;;;;;;;6.90;100.00;102163.44;4933719;28;20525;-73
2023/04/20 11:24:15;;;;;;;4.75;3.03;;;;;;;6.92;100.00;102164.28;4947527;28;21558;-73